Time;durP1;ratioP1;P1;durP2;ratioP2;P2;SDS_P1;SDS_P2;PMS_P1;PMS_P2;Temp;Humidity;BMP_temperature;BMP_pressure;BME280_temperature;BME280_humidity;BME280_pressure;Samples;Min_cycle;Max_cycle;Signal;HPM_P1;HPM_P2
2022/04/25 00:01:06;;;;;;;12.65;4.05;;;9.10;99.90;;;;;;5006899;28;20117;-51
2022/04/25 00:03:32;;;;;;;7.95;3.58;;;9.10;99.90;;;;;;5003792;28;20109;-52
2022/04/25 00:05:58;;;;;;;9.95;4.35;;;9.00;99.90;;;;;;5012657;28;20050;-50
2022/04/25 00:08:24;;;;;;;10.30;4.03;;;9.00;99.90;;;;;;5010319;28;20080;-51
2022/04/25 00:10:49;;;;;;;19.35;5.18;;;9.00;99.90;;;;;;5010442;28;20454;-52
2022/04/25 00:13:15;;;;;;;11.40;4.97;;;9.00;99.90;;;;;;4994612;28;20068;-51
2022/04/25 00:15:42;;;;;;;10.30;4.10;;;8.90;99.90;;;;;;5009485;28;20104;-51
2022/04/25 00:18:08;;;;;;;6.75;3.97;;;8.90;99.90;;;;;;5007079;28;20033;-52
2022/04/25 00:20:34;;;;;;;10.77;4.38;;;8.90;99.90;;;;;;4999932;28;20045;-53
2022/04/25 00:23:04;;;;;;;9.40;4.20;;;8.80;99.90;;;;;;5011778;28;20026;-52
2022/04/25 00:25:34;;;;;;;7.55;3.55;;;8.80;99.90;;;;;;5008852;28;20096;-52
2022/04/25 00:28:01;;;;;;;6.50;3.75;;;8.80;99.90;;;;;;5011908;28;20120;-52
2022/04/25 00:30:28;;;;;;;10.02;4.00;;;8.80;99.90;;;;;;4997188;28;20043;-52
2022/04/25 00:32:55;;;;;;;11.52;4.53;;;8.70;99.90;;;;;;5009194;28;20030;-51
2022/04/25 00:35:21;;;;;;;8.13;4.72;;;8.70;99.90;;;;;;5012322;28;20069;-52
2022/04/25 00:37:47;;;;;;;9.23;4.22;;;8.60;99.90;;;;;;4985986;28;20049;-52
2022/04/25 00:40:14;;;;;;;9.95;4.18;;;8.60;99.90;;;;;;5012003;28;20056;-53
2022/04/25 00:42:39;;;;;;;10.35;4.47;;;8.60;99.90;;;;;;5011578;28;20117;-47
2022/04/25 00:45:05;;;;;;;8.32;4.88;;;8.60;99.90;;;;;;5012082;28;20129;-51
2022/04/25 00:47:32;;;;;;;9.48;5.38;;;8.50;99.90;;;;;;5005625;28;20050;-51
2022/04/25 00:49:57;;;;;;;9.75;5.00;;;8.50;99.90;;;;;;4998966;28;20116;-53
2022/04/25 00:52:23;;;;;;;7.65;4.45;;;8.40;99.90;;;;;;5008291;28;20382;-51
2022/04/25 00:54:49;;;;;;;9.00;4.82;;;8.40;99.90;;;;;;4997017;28;20041;-52
2022/04/25 00:57:16;;;;;;;9.40;5.30;;;8.40;99.90;;;;;;4981730;28;20045;-53
2022/04/25 00:59:44;;;;;;;12.63;5.72;;;8.30;99.90;;;;;;5003409;28;20180;-52
2022/04/25 01:02:10;;;;;;;13.73;5.72;;;8.30;99.90;;;;;;5011752;28;20116;-52
2022/04/25 01:04:36;;;;;;;9.93;5.57;;;8.30;99.90;;;;;;5011502;28;20181;-53
2022/04/25 01:07:02;;;;;;;10.80;5.07;;;8.30;99.90;;;;;;5005231;28;20041;-47
2022/04/25 01:09:27;;;;;;;8.48;4.95;;;8.40;99.90;;;;;;5000791;28;20057;-51
2022/04/25 01:11:53;;;;;;;10.95;5.63;;;8.40;99.90;;;;;;5010835;28;20045;-49
2022/04/25 01:14:20;;;;;;;9.43;5.10;;;8.50;99.90;;;;;;5008818;28;20062;-52
2022/04/25 01:16:51;;;;;;;10.50;5.15;;;8.50;99.90;;;;;;4986756;28;20442;-52
2022/04/25 01:19:17;;;;;;;16.50;6.20;;;8.50;99.90;;;;;;4981254;28;20088;-47
2022/04/25 01:21:53;;;;;;;15.63;6.20;;;8.60;99.90;;;;;;5001811;28;20053;-49
2022/04/25 01:27:16;;;;;;;14.18;5.65;;;8.60;99.90;;;;;;5004073;28;20045;-51
2022/04/25 01:29:42;;;;;;;11.98;5.22;;;8.60;99.90;;;;;;4993578;28;20038;-55
2022/04/25 01:32:09;;;;;;;12.23;5.93;;;8.70;99.90;;;;;;5005652;28;20043;-51
2022/04/25 01:34:38;;;;;;;11.55;6.07;;;8.70;99.90;;;;;;5010671;28;20050;-51
2022/04/25 01:37:09;;;;;;;10.73;5.63;;;8.60;99.90;;;;;;4985903;28;20046;-53
2022/04/25 01:39:36;;;;;;;13.13;6.25;;;8.60;99.90;;;;;;5010964;28;20491;-52
2022/04/25 01:42:03;;;;;;;9.60;5.40;;;8.60;99.90;;;;;;5011102;28;20044;-51
2022/04/25 01:44:29;;;;;;;12.65;6.80;;;8.60;99.90;;;;;;5002821;28;20049;-51
2022/04/25 01:46:54;;;;;;;11.55;6.03;;;8.60;99.90;;;;;;5002726;28;20038;-51
2022/04/25 01:49:20;;;;;;;14.43;6.15;;;8.60;99.90;;;;;;4976267;28;20045;-52
2022/04/25 01:51:46;;;;;;;8.90;5.55;;;8.60;99.90;;;;;;5002604;28;20077;-51
2022/04/25 01:54:13;;;;;;;9.57;6.15;;;8.60;99.90;;;;;;5009401;28;20042;-52
2022/04/25 01:56:38;;;;;;;11.93;5.60;;;8.60;99.90;;;;;;4991572;28;20410;-51
2022/04/25 01:59:04;;;;;;;10.15;6.68;;;8.60;99.90;;;;;;5002253;28;20034;-49
2022/04/25 02:01:29;;;;;;;11.10;5.30;;;8.50;99.90;;;;;;4993360;28;20053;-52
2022/04/25 02:03:55;;;;;;;11.20;5.80;;;8.50;99.90;;;;;;5008816;28;20037;-52
2022/04/25 02:06:21;;;;;;;12.82;7.00;;;8.60;99.90;;;;;;5000037;28;20038;-51
2022/04/25 02:08:47;;;;;;;13.25;6.95;;;8.60;99.90;;;;;;5006976;28;20100;-50
2022/04/25 02:11:25;;;;;;;15.80;6.28;;;8.60;99.90;;;;;;5010822;28;20042;-53
2022/04/25 02:13:54;;;;;;;14.00;6.43;;;8.60;99.90;;;;;;5010564;28;20070;-50
2022/04/25 02:16:21;;;;;;;11.68;6.43;;;8.60;99.90;;;;;;5004930;28;20129;-52
2022/04/25 02:18:47;;;;;;;9.57;6.15;;;8.60;99.90;;;;;;5010343;28;20033;-51
2022/04/25 02:21:13;;;;;;;13.50;7.07;;;8.60;99.90;;;;;;4998338;28;20506;-50
2022/04/25 02:23:39;;;;;;;12.98;7.22;;;8.60;99.90;;;;;;5008928;28;20073;-51
2022/04/25 02:26:05;;;;;;;16.45;6.68;;;8.60;99.90;;;;;;5010157;28;20100;-53
2022/04/25 02:28:35;;;;;;;11.13;6.38;;;8.60;99.90;;;;;;5004177;28;20038;-50
2022/04/25 02:31:01;;;;;;;14.93;7.32;;;8.50;99.90;;;;;;4974268;28;20053;-52
2022/04/25 02:33:27;;;;;;;11.20;6.07;;;8.50;99.90;;;;;;5001892;28;20050;-52
2022/04/25 02:35:54;;;;;;;10.43;6.18;;;8.50;99.90;;;;;;5007858;28;20067;-52
2022/04/25 02:38:20;;;;;;;12.90;6.75;;;8.60;99.90;;;;;;4996536;28;20044;-53
2022/04/25 02:40:46;;;;;;;11.85;6.43;;;8.60;99.90;;;;;;4994864;28;20045;-52
2022/04/25 02:43:12;;;;;;;10.35;6.40;;;8.50;99.90;;;;;;5014599;28;20034;-51
2022/04/25 02:45:37;;;;;;;11.13;6.88;;;8.50;99.90;;;;;;5002537;28;20108;-53
2022/04/25 02:48:03;;;;;;;11.95;6.63;;;8.50;99.90;;;;;;4997397;28;20164;-54
2022/04/25 02:50:29;;;;;;;12.25;6.75;;;8.50;99.90;;;;;;5004048;28;20038;-49
2022/04/25 02:52:54;;;;;;;11.75;7.32;;;8.50;99.90;;;;;;4996482;28;20065;-51
2022/04/25 02:55:20;;;;;;;10.38;6.78;;;8.50;99.90;;;;;;5013769;28;20040;-53
2022/04/25 02:57:46;;;;;;;12.52;7.28;;;8.50;99.90;;;;;;5006838;28;20073;-52
2022/04/25 03:00:12;;;;;;;12.10;7.07;;;8.50;99.90;;;;;;5008340;28;20040;-52
2022/04/25 03:02:38;;;;;;;12.85;7.18;;;8.50;99.90;;;;;;5006735;28;20161;-52
2022/04/25 03:05:05;;;;;;;12.45;7.72;;;8.50;99.90;;;;;;4996217;28;20034;-48
2022/04/25 03:07:31;;;;;;;16.05;8.40;;;8.50;99.90;;;;;;5002824;28;20175;-53
2022/04/25 03:09:57;;;;;;;12.98;7.45;;;8.50;99.90;;;;;;5012275;28;20552;-52
2022/04/25 03:12:23;;;;;;;15.18;8.00;;;8.50;99.90;;;;;;5013597;28;20038;-52
2022/04/25 03:14:49;;;;;;;14.52;7.97;;;8.50;99.90;;;;;;5013294;28;20144;-49
2022/04/25 03:17:15;;;;;;;12.90;8.05;;;8.50;99.90;;;;;;5011090;28;20108;-50
2022/04/25 03:19:41;;;;;;;14.90;9.00;;;8.50;99.90;;;;;;5003938;28;20192;-53
2022/04/25 03:22:06;;;;;;;15.75;8.40;;;8.40;99.90;;;;;;5011821;28;20029;-49
2022/04/25 03:24:32;;;;;;;10.68;7.60;;;8.40;99.90;;;;;;5005453;28;20050;-49
2022/04/25 03:26:58;;;;;;;13.75;8.27;;;8.40;99.90;;;;;;5012206;28;20409;-50
2022/04/25 03:29:24;;;;;;;14.00;8.40;;;8.40;99.90;;;;;;5012591;28;20426;-52
2022/04/25 03:31:50;;;;;;;13.80;8.07;;;8.40;99.90;;;;;;5009052;28;20046;-52
2022/04/25 03:34:17;;;;;;;14.60;7.60;;;8.40;99.90;;;;;;5013214;28;20044;-49
2022/04/25 03:36:46;;;;;;;13.35;8.00;;;8.40;99.90;;;;;;5012741;28;20038;-52
2022/04/25 03:39:11;;;;;;;12.73;8.40;;;8.40;99.90;;;;;;4999452;28;20042;-52
2022/04/25 03:41:37;;;;;;;13.38;7.95;;;8.40;99.90;;;;;;5010679;28;20383;-53
2022/04/25 03:44:03;;;;;;;14.68;7.85;;;8.40;99.90;;;;;;5007526;28;20069;-50
2022/04/25 03:46:29;;;;;;;11.02;7.32;;;8.40;99.90;;;;;;4998580;28;20453;-50
2022/04/25 03:48:55;;;;;;;11.50;7.85;;;8.40;99.90;;;;;;4982210;28;20046;-52
2022/04/25 03:51:22;;;;;;;12.77;7.70;;;8.40;99.90;;;;;;5007634;28;20044;-50
2022/04/25 03:53:48;;;;;;;13.57;8.13;;;8.40;99.90;;;;;;4998662;28;20046;-53
2022/04/25 03:58:59;;;;;;;13.90;8.60;;;8.40;99.90;;;;;;5011762;28;20042;-53
2022/04/25 04:01:25;;;;;;;12.68;6.75;;;8.40;99.90;;;;;;5012610;28;20045;-52
2022/04/25 04:03:51;;;;;;;14.40;8.40;;;8.40;99.90;;;;;;5012950;28;20046;-52
2022/04/25 04:06:16;;;;;;;16.60;8.75;;;8.40;99.90;;;;;;4993344;28;20509;-53
2022/04/25 04:08:42;;;;;;;13.02;8.02;;;8.40;99.90;;;;;;5010977;28;20037;-52
2022/04/25 04:11:08;;;;;;;14.63;7.82;;;8.40;99.90;;;;;;5012521;28;20037;-52
2022/04/25 04:13:34;;;;;;;13.05;7.50;;;8.40;99.90;;;;;;5003202;28;20042;-53
2022/04/25 04:16:00;;;;;;;13.52;7.68;;;8.40;99.90;;;;;;5011318;28;20049;-53
2022/04/25 04:18:26;;;;;;;12.25;7.57;;;8.30;99.90;;;;;;5005190;28;20042;-54
2022/04/25 04:20:52;;;;;;;16.02;8.18;;;8.40;99.90;;;;;;5003854;28;20037;-54
2022/04/25 04:23:18;;;;;;;15.30;8.02;;;8.40;99.90;;;;;;4996126;28;20446;-50
2022/04/25 04:25:44;;;;;;;11.73;6.93;;;8.40;99.90;;;;;;5003002;28;20088;-53
2022/04/25 04:28:09;;;;;;;16.40;8.07;;;8.40;99.90;;;;;;5012321;28;20041;-52
2022/04/25 04:30:35;;;;;;;10.95;6.85;;;8.40;99.90;;;;;;5005539;28;20108;-54
2022/04/25 04:33:01;;;;;;;12.55;7.43;;;8.30;99.90;;;;;;5012121;28;20084;-53
2022/04/25 04:38:13;;;;;;;13.27;7.05;;;8.40;99.90;;;;;;4982752;28;20100;-53
2022/04/25 04:40:38;;;;;;;11.57;7.25;;;8.30;99.90;;;;;;5002991;28;20450;-53
2022/04/25 04:43:04;;;;;;;11.20;6.40;;;8.30;99.90;;;;;;5012020;28;20072;-53
2022/04/25 04:45:30;;;;;;;16.42;7.85;;;8.30;99.90;;;;;;4994122;28;20050;-53
2022/04/25 04:47:56;;;;;;;12.45;7.03;;;8.30;99.90;;;;;;5011081;28;20080;-53
2022/04/25 04:50:22;;;;;;;14.15;6.78;;;8.30;99.90;;;;;;5003083;28;20155;-53
2022/04/25 04:52:53;;;;;;;13.43;7.05;;;8.30;99.90;;;;;;5010282;28;20045;-53
2022/04/25 04:55:19;;;;;;;10.35;6.47;;;8.30;99.90;;;;;;5002318;28;20069;-54
2022/04/25 04:57:45;;;;;;;13.88;6.55;;;8.30;99.90;;;;;;5010862;28;20120;-53
2022/04/25 05:00:15;;;;;;;13.60;7.60;;;8.30;99.90;;;;;;5006514;28;20045;-53
2022/04/25 05:02:45;;;;;;;11.77;6.93;;;8.30;99.90;;;;;;5001699;28;20038;-53
2022/04/25 05:05:12;;;;;;;14.02;6.85;;;8.40;99.90;;;;;;5005389;28;20045;-54
2022/04/25 05:07:38;;;;;;;13.48;6.93;;;8.40;99.90;;;;;;5001092;28;20042;-51
2022/04/25 05:10:04;;;;;;;10.32;6.20;;;8.40;99.90;;;;;;5007901;28;20057;-52
2022/04/25 05:12:30;;;;;;;16.85;7.25;;;8.50;99.90;;;;;;5000281;28;20042;-51
2022/04/25 05:14:57;;;;;;;13.73;7.63;;;8.50;99.90;;;;;;5010928;28;20367;-54
2022/04/25 05:17:23;;;;;;;11.30;6.82;;;8.50;99.90;;;;;;4998737;28;20629;-54
2022/04/25 05:19:49;;;;;;;11.38;6.13;;;8.50;99.90;;;;;;5009275;28;20121;-54
2022/04/25 05:22:14;;;;;;;10.90;6.90;;;8.50;99.90;;;;;;5005646;28;20037;-53
2022/04/25 05:24:40;;;;;;;11.60;7.13;;;8.60;99.90;;;;;;4999769;28;20042;-53
2022/04/25 05:27:06;;;;;;;11.85;7.22;;;8.60;99.90;;;;;;4996504;28;20038;-54
2022/04/25 05:29:32;;;;;;;12.07;7.28;;;8.60;99.90;;;;;;5011623;28;20049;-52
2022/04/25 05:31:58;;;;;;;12.45;6.50;;;8.60;99.90;;;;;;5006119;28;20052;-53
2022/04/25 05:34:23;;;;;;;12.18;6.82;;;8.50;99.90;;;;;;4973242;28;20157;-49
2022/04/25 05:36:49;;;;;;;13.32;6.82;;;8.50;99.90;;;;;;4997515;28;20097;-53
2022/04/25 05:39:15;;;;;;;12.07;7.03;;;8.50;99.90;;;;;;5009229;28;20038;-53
2022/04/25 05:41:41;;;;;;;12.63;7.28;;;8.50;99.90;;;;;;5010843;28;20041;-53
2022/04/25 05:44:09;;;;;;;12.52;7.07;;;8.50;99.90;;;;;;5011307;28;20033;-53
2022/04/25 05:46:34;;;;;;;11.85;6.82;;;8.60;99.90;;;;;;4996426;28;20050;-51
2022/04/25 05:51:59;;;;;;;11.32;6.95;;;8.60;99.90;;;;;;5011139;28;20052;-53
2022/04/25 05:54:26;;;;;;;12.68;6.78;;;8.60;99.90;;;;;;5011294;28;20034;-50
2022/04/25 05:56:52;;;;;;;12.73;7.43;;;8.70;99.90;;;;;;5008874;28;20054;-54
2022/04/25 05:59:18;;;;;;;14.30;7.38;;;8.70;99.90;;;;;;5008655;28;20113;-54
2022/04/25 06:01:44;;;;;;;15.13;7.55;;;8.70;99.90;;;;;;4987765;28;20041;-52
2022/04/25 06:04:10;;;;;;;12.27;7.05;;;8.60;99.90;;;;;;4984629;28;20042;-52
2022/04/25 06:06:36;;;;;;;11.80;7.10;;;8.70;99.90;;;;;;4993287;28;20038;-53
2022/04/25 06:09:02;;;;;;;14.10;6.65;;;8.70;99.90;;;;;;4994552;28;20100;-52
2022/04/25 06:11:28;;;;;;;11.27;6.78;;;8.70;99.90;;;;;;5013412;28;20124;-53
2022/04/25 06:13:56;;;;;;;11.55;7.32;;;8.70;99.90;;;;;;5012385;28;20085;-54
2022/04/25 06:16:22;;;;;;;13.50;6.93;;;8.80;99.90;;;;;;5008597;28;20499;-52
2022/04/25 06:18:47;;;;;;;10.77;6.25;;;8.90;99.90;;;;;;5013241;28;20045;-54
2022/04/25 06:21:13;;;;;;;13.93;6.57;;;8.90;99.90;;;;;;5003199;28;20055;-53
2022/04/25 06:23:39;;;;;;;16.00;7.57;;;8.90;99.90;;;;;;5014764;28;20029;-53
2022/04/25 06:26:04;;;;;;;14.05;7.50;;;8.90;99.90;;;;;;4993229;28;20475;-52
2022/04/25 06:28:30;;;;;;;9.63;5.82;;;9.00;99.90;;;;;;4993560;28;20121;-51
2022/04/25 06:30:56;;;;;;;12.93;6.43;;;9.00;99.90;;;;;;5014007;28;20041;-52
2022/04/25 06:33:21;;;;;;;12.48;6.25;;;9.00;99.90;;;;;;5010666;28;20112;-53
2022/04/25 06:35:49;;;;;;;11.40;6.43;;;9.00;99.90;;;;;;5010878;28;20490;-54
2022/04/25 06:38:15;;;;;;;13.95;6.82;;;9.00;99.90;;;;;;5009303;28;20034;-53
2022/04/25 06:40:42;;;;;;;12.95;6.07;;;9.10;99.90;;;;;;5001931;28;20038;-54
2022/04/25 06:43:09;;;;;;;10.60;6.40;;;9.10;99.90;;;;;;4994872;28;20498;-54
2022/04/25 06:45:35;;;;;;;9.73;6.07;;;9.10;99.90;;;;;;5014091;28;20447;-53
2022/04/25 06:48:01;;;;;;;11.27;5.68;;;9.10;99.90;;;;;;4977058;28;20145;-53
2022/04/25 06:50:27;;;;;;;9.07;5.80;;;9.10;99.90;;;;;;5006112;28;20549;-53
2022/04/25 06:52:53;;;;;;;9.82;5.85;;;9.10;99.90;;;;;;5013977;28;20088;-51
2022/04/25 06:55:19;;;;;;;9.85;5.78;;;9.10;99.90;;;;;;5008416;28;20065;-53
2022/04/25 06:57:47;;;;;;;10.18;6.70;;;9.20;99.90;;;;;;5002173;28;20465;-52
2022/04/25 07:00:17;;;;;;;11.30;6.93;;;9.20;99.90;;;;;;4990566;28;20048;-51
2022/04/25 07:02:44;;;;;;;13.30;6.85;;;9.30;99.90;;;;;;5013314;28;20045;-53
2022/04/25 07:05:10;;;;;;;10.70;6.50;;;9.40;99.90;;;;;;5010084;28;20336;-53
2022/04/25 07:07:38;;;;;;;10.40;6.68;;;9.40;99.90;;;;;;5011050;28;20072;-52
2022/04/25 07:10:05;;;;;;;12.77;6.57;;;9.40;99.90;;;;;;4997076;28;20411;-53
2022/04/25 07:12:31;;;;;;;14.75;7.13;;;9.40;99.90;;;;;;5006897;28;20113;-54
2022/04/25 07:14:56;;;;;;;9.90;6.20;;;9.40;99.90;;;;;;5010434;28;20359;-52
2022/04/25 07:17:22;;;;;;;13.15;7.68;;;9.40;99.90;;;;;;5013355;28;20148;-52
2022/04/25 07:19:48;;;;;;;11.70;7.10;;;9.50;99.90;;;;;;5006681;28;20044;-53
2022/04/25 07:30:26;;;;;;;11.98;6.15;;;9.70;99.90;;;;;;4995704;28;20046;-54
2022/04/25 07:32:52;;;;;;;12.63;6.57;;;9.60;99.90;;;;;;5007655;28;20167;-50
2022/04/25 07:35:21;;;;;;;18.48;7.15;;;9.60;99.90;;;;;;5003439;28;20038;-53
2022/04/25 07:37:47;;;;;;;14.50;7.15;;;9.60;99.90;;;;;;4995230;28;20046;-50
2022/04/25 07:40:13;;;;;;;15.05;7.85;;;9.50;99.90;;;;;;5007268;28;20483;-53
2022/04/25 07:42:39;;;;;;;15.65;8.30;;;9.50;99.90;;;;;;5012758;28;20038;-54
2022/04/25 07:45:07;;;;;;;13.52;7.60;;;9.50;99.90;;;;;;5001310;28;20030;-53
2022/04/25 07:47:33;;;;;;;14.00;7.45;;;9.50;99.90;;;;;;4984020;28;20128;-54
2022/04/25 07:49:59;;;;;;;12.30;7.40;;;9.50;99.90;;;;;;4995659;28;20054;-54
2022/04/25 07:52:25;;;;;;;13.45;6.93;;;9.40;99.90;;;;;;4992297;28;20081;-54
2022/04/25 07:54:55;;;;;;;12.45;6.68;;;9.40;99.90;;;;;;5012315;28;20069;-51
2022/04/25 07:57:20;;;;;;;14.23;6.68;;;9.40;99.90;;;;;;5000370;28;20548;-54
2022/04/25 07:59:47;;;;;;;13.32;7.65;;;9.40;99.90;;;;;;5010482;28;20050;-53
2022/04/25 08:02:12;;;;;;;12.90;6.93;;;9.40;99.90;;;;;;4984141;28;20086;-54
2022/04/25 08:04:38;;;;;;;13.82;7.70;;;9.30;99.90;;;;;;4998610;28;20074;-54
2022/04/25 08:07:04;;;;;;;10.23;6.07;;;9.30;99.90;;;;;;5011949;28;20031;-51
2022/04/25 08:09:29;;;;;;;11.15;7.18;;;9.30;99.90;;;;;;5008217;28;20352;-53
2022/04/25 08:20:08;;;;;;;11.05;7.40;;;9.40;99.90;;;;;;5009175;28;20573;-53
2022/04/25 08:22:34;;;;;;;12.27;6.93;;;9.50;99.90;;;;;;4996009;28;20383;-52
2022/04/25 08:25:01;;;;;;;10.85;5.88;;;9.50;99.90;;;;;;4998331;28;20042;-52
2022/04/25 08:27:27;;;;;;;12.30;6.90;;;9.60;99.90;;;;;;5012147;28;20045;-57
2022/04/25 08:29:53;;;;;;;13.45;6.75;;;9.60;99.90;;;;;;5004245;28;20099;-55
2022/04/25 08:32:19;;;;;;;9.52;6.05;;;9.70;99.90;;;;;;5012077;28;20528;-54
2022/04/25 08:34:45;;;;;;;12.65;6.80;;;9.70;99.90;;;;;;5011704;28;20038;-53
2022/04/25 08:37:11;;;;;;;10.35;5.90;;;9.70;99.90;;;;;;5008422;28;20368;-54
2022/04/25 08:39:36;;;;;;;11.20;6.00;;;9.70;99.90;;;;;;5010264;28;20052;-54
2022/04/25 08:42:03;;;;;;;10.43;6.10;;;9.70;99.90;;;;;;5003304;28;20480;-53
2022/04/25 08:44:31;;;;;;;12.57;6.90;;;9.60;99.90;;;;;;5008009;28;20042;-54
2022/04/25 08:46:59;;;;;;;10.23;6.75;;;9.50;99.90;;;;;;4994013;28;20147;-55
2022/04/25 08:49:26;;;;;;;13.23;6.03;;;9.40;99.90;;;;;;5010192;28;20486;-53
2022/04/25 08:51:58;;;;;;;10.82;6.25;;;9.30;99.90;;;;;;5009836;28;20113;-54
2022/04/25 08:54:29;;;;;;;11.13;6.05;;;9.20;99.90;;;;;;5011994;28;20041;-50
2022/04/25 08:56:55;;;;;;;11.98;6.20;;;9.20;99.90;;;;;;5011122;28;20050;-53
2022/04/25 08:59:23;;;;;;;9.63;6.35;;;9.20;99.90;;;;;;5011803;28;20191;-48
2022/04/25 09:01:49;;;;;;;10.70;6.97;;;9.20;99.90;;;;;;5008701;28;20083;-53
2022/04/25 09:04:15;;;;;;;9.73;6.13;;;9.20;99.90;;;;;;4996442;28;20522;-52
2022/04/25 09:06:41;;;;;;;10.88;6.22;;;9.20;99.90;;;;;;5006652;28;20058;-49
2022/04/25 09:09:07;;;;;;;13.45;7.05;;;9.20;99.90;;;;;;5006593;28;20037;-53
2022/04/25 09:14:18;;;;;;;12.05;6.47;;;9.30;99.90;;;;;;5011206;28;20072;-53
2022/04/25 09:16:45;;;;;;;11.80;6.18;;;9.30;99.90;;;;;;4988452;28;20561;-52
2022/04/25 09:19:11;;;;;;;7.90;5.30;;;9.20;99.90;;;;;;5011422;28;20033;-53
2022/04/25 09:21:44;;;;;;;8.65;6.03;;;9.20;99.90;;;;;;5005121;28;20121;-53
2022/04/25 09:24:32;;;;;;;8.07;5.20;;;9.20;99.90;;;;;;5002427;28;20038;-52
2022/04/25 09:27:06;;;;;;;9.38;5.70;;;9.20;99.90;;;;;;5006930;28;20160;-52
2022/04/25 09:29:32;;;;;;;11.00;5.90;;;9.20;99.90;;;;;;5010489;28;20121;-47
2022/04/25 09:31:58;;;;;;;10.88;5.35;;;9.30;99.90;;;;;;5008672;28;20034;-52
2022/04/25 09:37:08;;;;;;;10.48;5.65;;;9.30;99.90;;;;;;5010630;28;20196;-53
2022/04/25 09:39:34;;;;;;;9.90;6.05;;;9.30;99.90;;;;;;5002532;28;20125;-53
2022/04/25 09:42:00;;;;;;;11.80;6.80;;;9.30;99.90;;;;;;5008019;28;20518;-53
2022/04/25 09:44:28;;;;;;;10.85;6.70;;;9.30;99.90;;;;;;5006153;28;20126;-51
2022/04/25 09:46:54;;;;;;;10.48;6.72;;;9.30;99.90;;;;;;4999123;28;20038;-53
2022/04/25 09:49:23;;;;;;;11.68;6.90;;;9.20;99.90;;;;;;5010299;28;20048;-56
2022/04/25 09:52:02;;;;;;;12.45;6.43;;;9.20;99.90;;;;;;5011194;28;20042;-53
2022/04/25 09:54:28;;;;;;;13.82;7.18;;;9.20;99.90;;;;;;5011201;28;20572;-53
2022/04/25 09:56:54;;;;;;;9.82;6.50;;;9.20;99.90;;;;;;4996861;28;20836;-53
2022/04/25 09:59:21;;;;;;;12.02;6.85;;;9.20;99.90;;;;;;4990549;28;20125;-52
2022/04/25 10:02:04;;;;;;;11.85;7.05;;;9.20;99.90;;;;;;5011107;28;20037;-53
2022/04/25 10:04:38;;;;;;;10.90;6.50;;;9.30;99.90;;;;;;5004359;28;20049;-49
2022/04/25 10:07:06;;;;;;;12.52;7.63;;;9.30;99.90;;;;;;5008132;28;20046;-55
2022/04/25 10:09:34;;;;;;;11.35;6.97;;;9.40;99.90;;;;;;5008701;28;20042;-53
2022/04/25 10:12:02;;;;;;;11.88;7.20;;;9.50;99.90;;;;;;5005588;28;20038;-53
2022/04/25 10:14:28;;;;;;;14.73;8.32;;;9.50;99.90;;;;;;5010685;28;20119;-50
2022/04/25 10:16:58;;;;;;;14.60;7.93;;;9.60;99.90;;;;;;4990880;28;20486;-53
2022/04/25 10:19:24;;;;;;;12.48;7.63;;;9.70;99.90;;;;;;5000051;28;20033;-53
2022/04/25 10:21:54;;;;;;;15.27;6.95;;;9.80;99.90;;;;;;5010647;28;20033;-52
2022/04/25 10:24:20;;;;;;;15.32;7.80;;;9.90;99.90;;;;;;4997597;28;20101;-51
2022/04/25 10:26:51;;;;;;;12.63;7.85;;;10.00;99.90;;;;;;5010511;28;20491;-52
2022/04/25 10:29:34;;;;;;;9.80;6.82;;;10.00;99.90;;;;;;4984097;28;20060;-51
2022/04/25 10:32:01;;;;;;;12.40;7.40;;;10.10;99.90;;;;;;5000168;28;20046;-53
2022/04/25 10:34:46;;;;;;;10.07;6.95;;;10.10;99.90;;;;;;4992840;28;20073;-53
2022/04/25 10:37:39;;;;;;;14.30;8.05;;;10.10;99.90;;;;;;5005038;28;20034;-50
2022/04/25 10:40:12;;;;;;;10.80;6.85;;;10.10;99.90;;;;;;4996477;28;20118;-53
2022/04/25 10:45:53;;;;;;;11.80;6.93;;;10.20;99.90;;;;;;5003154;28;20020;-53
2022/04/25 10:48:19;;;;;;;9.25;6.13;;;10.30;99.90;;;;;;4980164;28;20050;-52
2022/04/25 10:51:09;;;;;;;10.88;6.57;;;10.40;99.90;;;;;;5007897;28;20050;-52
2022/04/25 10:54:00;;;;;;;11.40;6.38;;;10.60;99.90;;;;;;4990447;28;20049;-53
2022/04/25 10:56:27;;;;;;;9.05;6.10;;;10.90;99.90;;;;;;5009283;28;20407;-51
2022/04/25 10:59:18;;;;;;;10.10;5.90;;;11.10;99.90;;;;;;4994281;28;20084;-55
2022/04/25 11:01:45;;;;;;;8.30;5.30;;;11.30;99.90;;;;;;5011631;28;20403;-57
2022/04/25 11:04:13;;;;;;;11.40;5.72;;;11.30;99.90;;;;;;5009156;28;20069;-52
2022/04/25 11:06:39;;;;;;;9.13;5.60;;;11.30;99.90;;;;;;5014022;28;20046;-50
2022/04/25 11:09:05;;;;;;;9.20;6.15;;;11.30;99.90;;;;;;5011814;28;20505;-52
2022/04/25 11:11:51;;;;;;;8.82;4.90;;;11.20;99.90;;;;;;5012523;28;20481;-53
2022/04/25 11:14:17;;;;;;;10.80;6.00;;;11.10;99.90;;;;;;5007723;28;20466;-52
2022/04/25 11:17:07;;;;;;;9.05;5.00;;;11.00;99.90;;;;;;5000091;28;20055;-52
2022/04/25 11:19:54;;;;;;;9.48;4.93;;;10.90;99.90;;;;;;5004954;28;20506;-53
2022/04/25 11:22:46;;;;;;;9.68;4.80;;;10.80;99.90;;;;;;5000792;28;20042;-48
2022/04/25 11:25:27;;;;;;;9.27;5.15;;;10.80;99.90;;;;;;5000815;28;20042;-51
2022/04/25 11:28:07;;;;;;;13.50;5.57;;;10.60;99.90;;;;;;5008105;28;20045;-51
2022/04/25 11:30:33;;;;;;;11.43;5.10;;;10.60;99.90;;;;;;5009050;28;20042;-49
2022/04/25 11:33:09;;;;;;;10.15;5.47;;;10.60;99.90;;;;;;5013481;28;20514;-53
2022/04/25 11:35:37;;;;;;;10.45;5.45;;;10.70;99.90;;;;;;4984866;28;20038;-52
2022/04/25 11:38:03;;;;;;;9.48;5.30;;;10.80;99.90;;;;;;5005285;28;20046;-51
2022/04/25 11:40:29;;;;;;;9.48;5.20;;;11.00;99.90;;;;;;5009179;28;20069;-54
2022/04/25 11:42:55;;;;;;;7.13;4.88;;;11.20;99.90;;;;;;5004842;28;20039;-53
2022/04/25 11:45:20;;;;;;;7.60;4.90;;;11.40;99.90;;;;;;5013214;28;20042;-53
2022/04/25 11:47:46;;;;;;;8.00;5.13;;;11.50;99.90;;;;;;5012567;28;20100;-52
2022/04/25 11:50:12;;;;;;;9.00;5.40;;;11.60;99.90;;;;;;5001686;28;20545;-53
2022/04/25 11:52:52;;;;;;;6.95;4.80;;;11.80;99.90;;;;;;5011741;28;20073;-54
2022/04/25 11:55:29;;;;;;;7.28;4.35;;;11.90;99.90;;;;;;5001879;28;20046;-54
2022/04/25 11:57:55;;;;;;;7.57;4.20;;;11.90;99.90;;;;;;5006034;28;20103;-53
2022/04/25 12:00:21;;;;;;;7.40;4.68;;;12.00;99.90;;;;;;5002031;28;20050;-51
2022/04/25 12:02:47;;;;;;;7.75;4.40;;;12.00;99.90;;;;;;4999362;28;20034;-49
2022/04/25 12:05:23;;;;;;;9.80;4.72;;;12.10;99.90;;;;;;4998670;28;20370;-54
2022/04/25 12:16:02;;;;;;;7.88;4.18;;;12.30;99.90;;;;;;5012418;28;20060;-53
2022/04/25 12:18:30;;;;;;;7.15;4.32;;;12.30;99.90;;;;;;5009655;28;20030;-52
2022/04/25 12:21:12;;;;;;;6.70;4.15;;;12.50;99.90;;;;;;5002805;28;20044;-52
2022/04/25 12:23:47;;;;;;;9.05;5.10;;;12.60;99.90;;;;;;5000878;28;20042;-53
2022/04/25 12:26:29;;;;;;;8.18;4.10;;;12.90;99.40;;;;;;5008154;28;20033;-53
2022/04/25 12:29:00;;;;;;;7.45;4.53;;;13.10;98.10;;;;;;5010870;28;20038;-54
2022/04/25 12:31:30;;;;;;;6.35;4.47;;;13.20;97.50;;;;;;5012217;28;20467;-52
2022/04/25 12:34:05;;;;;;;8.23;4.82;;;13.30;97.30;;;;;;5012527;28;20096;-53
2022/04/25 12:36:32;;;;;;;8.15;4.90;;;13.40;96.20;;;;;;4994572;28;20041;-50
2022/04/25 12:38:58;;;;;;;10.77;4.90;;;13.40;96.50;;;;;;5011909;28;20045;-54
2022/04/25 12:41:31;;;;;;;7.03;3.85;;;13.50;95.70;;;;;;5009816;28;20344;-53
2022/04/25 12:43:58;;;;;;;9.90;4.70;;;13.60;95.60;;;;;;5003133;28;20486;-53
2022/04/25 12:46:36;;;;;;;7.00;4.53;;;13.70;95.10;;;;;;5006836;28;20551;-54
2022/04/25 12:49:13;;;;;;;9.98;5.43;;;13.80;93.70;;;;;;4993817;28;20240;-53
2022/04/25 12:51:45;;;;;;;7.15;4.20;;;13.80;94.30;;;;;;5005633;28;20120;-52
2022/04/25 12:54:30;;;;;;;8.77;4.72;;;13.90;94.10;;;;;;5004774;28;20049;-51
2022/04/25 12:57:31;;;;;;;6.90;4.82;;;14.10;93.80;;;;;;5007638;28;20050;-53
2022/04/25 12:59:59;;;;;;;8.38;4.80;;;14.10;91.50;;;;;;4922438;29;20047;-53
2022/04/25 13:02:32;;;;;;;8.02;4.40;;;14.10;93.00;;;;;;4990649;28;20142;-52
2022/04/25 13:05:08;;;;;;;6.97;4.43;;;14.00;93.00;;;;;;5010351;28;20052;-53
2022/04/25 13:07:42;;;;;;;7.28;4.78;;;13.90;93.20;;;;;;5000229;28;20050;-53
2022/04/25 13:10:16;;;;;;;7.90;4.32;;;13.90;93.20;;;;;;5005971;28;20046;-52
2022/04/25 13:12:47;;;;;;;7.95;4.47;;;13.90;92.90;;;;;;5011415;28;20046;-47
2022/04/25 13:15:19;;;;;;;7.85;4.65;;;13.90;92.60;;;;;;4996787;28;20050;-54
2022/04/25 13:17:45;;;;;;;7.43;4.63;;;14.00;92.90;;;;;;5004307;28;20055;-54
2022/04/25 13:20:13;;;;;;;5.72;4.30;;;14.00;92.90;;;;;;5009060;28;20037;-51
2022/04/25 13:22:42;;;;;;;7.53;4.35;;;14.10;92.40;;;;;;5009343;28;20514;-54
2022/04/25 13:25:09;;;;;;;7.30;4.40;;;14.10;92.10;;;;;;5011115;28;20033;-50
2022/04/25 13:27:37;;;;;;;7.00;5.07;;;14.10;91.60;;;;;;4994096;28;20510;-54
2022/04/25 13:30:07;;;;;;;8.20;4.82;;;14.10;91.70;;;;;;5004130;28;20048;-52
2022/04/25 13:32:34;;;;;;;6.82;4.25;;;14.10;91.30;;;;;;5000479;28;20089;-53
2022/04/25 13:35:00;;;;;;;6.57;4.03;;;14.00;91.40;;;;;;5000281;28;20105;-51
2022/04/25 13:37:29;;;;;;;6.10;4.13;;;14.00;91.20;;;;;;4997490;28;20045;-53